Time;durP1;ratioP1;P1;durP2;ratioP2;P2;SDS_P1;SDS_P2;PMS_P1;PMS_P2;Temp;Humidity;BMP_temperature;BMP_pressure;BME280_temperature;BME280_humidity;BME280_pressure;Samples;Min_cycle;Max_cycle;Signal;HPM_P1;HPM_P2
2022/03/24 00:04:50;;;;;;;47.65;24.33;;;;;;;;;;10405652;28;20047;-68
2022/03/24 00:09:52;;;;;;;44.80;22.48;;;;;;;;;;10383598;28;20050;-67
2022/03/24 00:14:53;;;;;;;49.80;24.13;;;;;;;;;;10391911;28;20041;-66
2022/03/24 00:19:55;;;;;;;49.22;25.02;;;;;;;;;;10398853;28;20053;-67
2022/03/24 00:24:56;;;;;;;45.95;23.55;;;;;;;;;;10383983;28;20053;-66
2022/03/24 00:29:58;;;;;;;44.80;22.77;;;;;;;;;;10399073;28;20049;-68
2022/03/24 00:34:59;;;;;;;52.00;23.63;;;;;;;;;;10400091;28;20543;-68
2022/03/24 00:40:06;;;;;;;46.95;22.42;;;;;;;;;;10391180;28;20068;-67
2022/03/24 00:45:12;;;;;;;44.40;22.60;;;;;;;;;;10398164;28;20527;-67
2022/03/24 00:50:14;;;;;;;49.72;22.52;;;;;;;;;;10389471;28;20053;-66
2022/03/24 00:55:17;;;;;;;43.63;22.02;;;;;;;;;;10398672;28;20161;-67
2022/03/24 01:00:20;;;;;;;42.97;22.45;;;;;;;;;;10396861;28;20045;-67
2022/03/24 01:05:23;;;;;;;51.95;22.67;;;;;;;;;;10383168;28;20390;-67
2022/03/24 01:10:25;;;;;;;47.80;21.75;;;;;;;;;;10393016;28;20049;-67
2022/03/24 01:15:27;;;;;;;48.92;22.38;;;;;;;;;;10376738;28;20045;-66
2022/03/24 01:20:30;;;;;;;45.97;21.80;;;;;;;;;;10392856;28;20076;-67
2022/03/24 01:25:32;;;;;;;46.63;21.58;;;;;;;;;;10386530;28;20041;-67
2022/03/24 01:30:34;;;;;;;47.92;22.67;;;;;;;;;;10397860;28;20424;-66
2022/03/24 01:35:35;;;;;;;47.05;22.20;;;;;;;;;;10380371;28;20508;-68
2022/03/24 01:40:37;;;;;;;43.17;21.00;;;;;;;;;;10394258;28;20037;-67
2022/03/24 01:45:39;;;;;;;50.00;22.58;;;;;;;;;;10386017;28;20073;-66
2022/03/24 01:50:41;;;;;;;45.17;20.08;;;;;;;;;;10392252;28;20141;-67
2022/03/24 01:55:43;;;;;;;44.95;22.88;;;;;;;;;;10396984;28;20051;-67
2022/03/24 02:00:44;;;;;;;48.22;22.08;;;;;;;;;;10395139;28;20517;-67
2022/03/24 02:05:46;;;;;;;42.13;19.58;;;;;;;;;;10393149;28;20121;-66
2022/03/24 02:10:48;;;;;;;44.40;20.70;;;;;;;;;;10387392;28;20033;-67
2022/03/24 02:15:51;;;;;;;44.15;20.48;;;;;;;;;;10384469;28;20072;-68
2022/03/24 02:20:53;;;;;;;46.00;21.60;;;;;;;;;;10383090;28;20042;-67
2022/03/24 02:25:55;;;;;;;52.97;21.88;;;;;;;;;;10380683;28;20115;-66
2022/03/24 02:30:56;;;;;;;42.40;20.63;;;;;;;;;;10367600;28;20064;-66
2022/03/24 02:36:00;;;;;;;45.35;21.40;;;;;;;;;;10388861;28;20048;-67
2022/03/24 02:41:01;;;;;;;50.50;21.42;;;;;;;;;;10393886;28;20060;-67
2022/03/24 02:46:03;;;;;;;45.45;20.92;;;;;;;;;;10387955;28;20037;-67
2022/03/24 02:51:06;;;;;;;41.28;19.95;;;;;;;;;;10403381;28;20060;-67
2022/03/24 02:56:07;;;;;;;38.83;20.52;;;;;;;;;;10404221;28;20038;-67
2022/03/24 03:01:09;;;;;;;50.15;21.45;;;;;;;;;;10397172;28;20621;-67
2022/03/24 03:06:13;;;;;;;42.55;20.70;;;;;;;;;;10398510;28;20053;-67
2022/03/24 03:11:14;;;;;;;41.53;20.83;;;;;;;;;;10400954;28;20531;-67
2022/03/24 03:16:15;;;;;;;47.53;21.42;;;;;;;;;;10404197;28;20472;-67
2022/03/24 03:21:17;;;;;;;47.00;21.98;;;;;;;;;;10384287;28;20038;-67
2022/03/24 03:26:19;;;;;;;48.33;21.00;;;;;;;;;;10387146;28;20134;-67
2022/03/24 03:31:20;;;;;;;52.70;21.65;;;;;;;;;;10397231;28;20045;-67
2022/03/24 03:36:22;;;;;;;44.33;20.40;;;;;;;;;;10383607;28;20528;-67
2022/03/24 03:41:24;;;;;;;40.97;19.98;;;;;;;;;;10393063;28;20053;-67
2022/03/24 03:46:25;;;;;;;46.22;20.83;;;;;;;;;;10399664;28;20046;-66
2022/03/24 03:51:27;;;;;;;46.17;20.63;;;;;;;;;;10392411;28;20038;-67
2022/03/24 03:56:29;;;;;;;49.17;20.05;;;;;;;;;;10401660;28;20045;-66
2022/03/24 04:01:31;;;;;;;43.63;20.05;;;;;;;;;;10395149;28;20048;-67
2022/03/24 04:06:34;;;;;;;46.60;21.02;;;;;;;;;;10402561;28;20092;-67
2022/03/24 04:11:36;;;;;;;44.72;21.27;;;;;;;;;;10374051;28;20041;-66
2022/03/24 04:16:38;;;;;;;47.38;20.05;;;;;;;;;;10395682;28;20073;-67
2022/03/24 04:21:39;;;;;;;44.13;21.15;;;;;;;;;;10397908;28;20497;-67
2022/03/24 04:26:41;;;;;;;49.83;20.67;;;;;;;;;;10388155;28;20409;-67
2022/03/24 04:31:42;;;;;;;49.60;21.25;;;;;;;;;;10388716;28;20571;-67
2022/03/24 04:36:43;;;;;;;43.63;20.20;;;;;;;;;;10389209;28;20045;-66
2022/03/24 04:41:45;;;;;;;51.38;20.88;;;;;;;;;;10387699;28;20116;-66
2022/03/24 04:46:46;;;;;;;46.85;19.55;;;;;;;;;;10391047;28;20116;-68
2022/03/24 04:51:47;;;;;;;46.63;19.67;;;;;;;;;;10387577;28;20398;-67
2022/03/24 04:56:49;;;;;;;43.08;19.55;;;;;;;;;;10385461;28;20582;-68
2022/03/24 05:01:51;;;;;;;39.45;18.67;;;;;;;;;;10390660;28;20037;-64
2022/03/24 05:06:53;;;;;;;46.42;19.52;;;;;;;;;;10394379;28;20141;-67
2022/03/24 05:11:54;;;;;;;39.47;18.38;;;;;;;;;;10396184;28;20042;-67
2022/03/24 05:16:56;;;;;;;41.25;18.52;;;;;;;;;;10389698;28;20453;-67
2022/03/24 05:21:58;;;;;;;42.55;19.67;;;;;;;;;;10378483;28;20070;-67
2022/03/24 05:26:59;;;;;;;45.25;19.10;;;;;;;;;;10380726;28;20049;-66
2022/03/24 05:32:01;;;;;;;44.00;19.17;;;;;;;;;;10385820;28;20665;-66
2022/03/24 05:37:03;;;;;;;44.70;18.77;;;;;;;;;;10368556;28;20056;-65
2022/03/24 05:42:04;;;;;;;43.03;17.70;;;;;;;;;;10374590;28;20042;-67
2022/03/24 05:47:06;;;;;;;41.25;18.70;;;;;;;;;;10376237;28;20064;-66
2022/03/24 05:52:07;;;;;;;47.80;19.35;;;;;;;;;;10377457;28;20425;-67
2022/03/24 05:57:10;;;;;;;40.20;18.38;;;;;;;;;;10397607;28;20395;-67
2022/03/24 06:02:13;;;;;;;46.75;19.60;;;;;;;;;;10368209;28;20058;-66
2022/03/24 06:07:16;;;;;;;41.85;17.45;;;;;;;;;;10382473;28;20048;-67
2022/03/24 06:12:18;;;;;;;52.72;20.50;;;;;;;;;;10389737;28;20053;-67
2022/03/24 06:17:20;;;;;;;48.70;21.15;;;;;;;;;;10393336;28;20056;-66
2022/03/24 06:22:21;;;;;;;45.90;20.70;;;;;;;;;;10400205;28;20425;-67
2022/03/24 06:27:22;;;;;;;41.53;19.52;;;;;;;;;;10398469;28;20054;-67
2022/03/24 06:32:24;;;;;;;45.42;21.05;;;;;;;;;;10394799;28;20049;-68
2022/03/24 06:37:27;;;;;;;48.92;19.70;;;;;;;;;;10397941;28;20528;-65
2022/03/24 06:42:29;;;;;;;53.17;21.48;;;;;;;;;;10392555;28;20046;-67
2022/03/24 06:47:31;;;;;;;48.13;22.05;;;;;;;;;;10384588;28;20050;-67
2022/03/24 06:52:32;;;;;;;47.25;21.10;;;;;;;;;;10387790;28;20049;-66
2022/03/24 06:57:34;;;;;;;49.67;21.63;;;;;;;;;;10394442;28;20041;-68
2022/03/24 07:02:36;;;;;;;59.25;23.38;;;;;;;;;;10393305;28;20033;-66
2022/03/24 07:07:39;;;;;;;55.78;22.75;;;;;;;;;;10393555;28;20136;-66
2022/03/24 07:12:40;;;;;;;51.28;21.63;;;;;;;;;;10379811;28;20046;-67
2022/03/24 07:17:42;;;;;;;53.40;22.40;;;;;;;;;;10393364;28;20079;-66
2022/03/24 07:22:45;;;;;;;50.58;22.80;;;;;;;;;;10401324;28;20042;-67
2022/03/24 07:27:49;;;;;;;57.35;23.25;;;;;;;;;;10402737;28;20045;-68
2022/03/24 07:32:50;;;;;;;46.53;20.95;;;;;;;;;;10392012;28;20785;-68
2022/03/24 07:37:53;;;;;;;48.05;20.75;;;;;;;;;;10376403;28;20038;-68
2022/03/24 07:42:56;;;;;;;40.00;20.17;;;;;;;;;;10379240;28;20037;-69
2022/03/24 07:48:11;;;;;;;47.72;21.10;;;;;;;;;;10391100;28;20054;-69
2022/03/24 07:53:13;;;;;;;43.70;20.17;;;;;;;;;;10376980;28;20420;-67
2022/03/24 07:58:16;;;;;;;38.10;20.90;;;;;;;;;;10385926;28;20052;-67
2022/03/24 08:03:19;;;;;;;39.58;20.65;;;;;;;;;;10399220;28;20037;-69
2022/03/24 08:08:21;;;;;;;39.08;21.13;;;;;;;;;;10384432;28;20089;-68
2022/03/24 08:13:23;;;;;;;40.78;20.05;;;;;;;;;;10388962;28;20064;-69
2022/03/24 08:18:24;;;;;;;41.47;20.50;;;;;;;;;;10395065;28;20057;-69
2022/03/24 08:23:25;;;;;;;42.78;21.45;;;;;;;;;;10391225;28;20607;-69
2022/03/24 08:28:27;;;;;;;40.90;20.63;;;;;;;;;;10385430;28;20047;-69
2022/03/24 08:33:28;;;;;;;36.15;18.70;;;;;;;;;;10390652;28;20049;-70
2022/03/24 08:38:30;;;;;;;34.33;19.13;;;;;;;;;;10398405;28;20060;-71
2022/03/24 08:43:31;;;;;;;37.13;18.70;;;;;;;;;;10384615;28;20052;-69
2022/03/24 08:48:38;;;;;;;32.50;18.55;;;;;;;;;;10392317;28;20049;-69
2022/03/24 08:53:44;;;;;;;33.90;18.35;;;;;;;;;;10371037;28;20148;-69
2022/03/24 08:58:46;;;;;;;35.95;19.55;;;;;;;;;;10373625;28;20064;-69
2022/03/24 09:03:51;;;;;;;37.13;19.15;;;;;;;;;;10371186;28;20041;-68
2022/03/24 09:08:54;;;;;;;35.40;18.45;;;;;;;;;;10367672;28;20065;-68
2022/03/24 09:13:56;;;;;;;34.92;18.92;;;;;;;;;;10375478;28;20045;-67
2022/03/24 09:18:57;;;;;;;36.50;19.15;;;;;;;;;;10379059;28;20076;-69
2022/03/24 09:23:59;;;;;;;33.22;18.25;;;;;;;;;;10378860;28;21679;-67
2022/03/24 09:29:01;;;;;;;33.05;17.45;;;;;;;;;;10374665;28;20050;-70
2022/03/24 09:34:04;;;;;;;34.28;18.83;;;;;;;;;;10373344;28;20101;-69
2022/03/24 09:39:05;;;;;;;32.03;16.80;;;;;;;;;;10387418;28;20041;-70
2022/03/24 09:44:07;;;;;;;30.92;17.25;;;;;;;;;;10387581;28;20049;-70
2022/03/24 09:49:10;;;;;;;31.90;17.75;;;;;;;;;;10380498;28;20057;-71
2022/03/24 09:54:12;;;;;;;35.15;17.25;;;;;;;;;;10372799;28;20042;-69
2022/03/24 09:59:13;;;;;;;30.00;16.52;;;;;;;;;;10385335;28;20413;-70
2022/03/24 10:04:14;;;;;;;29.52;16.77;;;;;;;;;;10407197;28;20413;-69
2022/03/24 10:09:33;;;;;;;29.65;16.25;;;;;;;;;;10399934;28;20451;-69
2022/03/24 10:14:35;;;;;;;33.67;16.23;;;;;;;;;;10387175;28;20049;-70
2022/03/24 10:19:37;;;;;;;27.45;15.90;;;;;;;;;;10384059;28;20048;-73
2022/03/24 10:24:40;;;;;;;32.15;17.20;;;;;;;;;;10385873;28;20042;-71
2022/03/24 10:29:45;;;;;;;35.53;16.75;;;;;;;;;;10401837;28;20053;-72
2022/03/24 10:34:48;;;;;;;31.60;16.52;;;;;;;;;;10392953;28;20068;-72
2022/03/24 10:39:57;;;;;;;26.55;15.10;;;;;;;;;;10385216;28;20049;-72
2022/03/24 10:45:11;;;;;;;26.92;15.20;;;;;;;;;;10405342;28;20059;-71
2022/03/24 10:50:42;;;;;;;28.48;15.27;;;;;;;;;;10388052;28;20131;-70
2022/03/24 10:55:43;;;;;;;30.15;14.77;;;;;;;;;;10395814;28;20053;-71
2022/03/24 11:00:46;;;;;;;28.02;14.85;;;;;;;;;;10392010;28;20045;-68
2022/03/24 11:05:47;;;;;;;30.05;15.98;;;;;;;;;;10405624;28;20041;-72
2022/03/24 11:10:49;;;;;;;27.58;14.02;;;;;;;;;;10396607;28;20128;-70
2022/03/24 11:15:57;;;;;;;30.08;14.68;;;;;;;;;;10394443;28;20046;-72
2022/03/24 11:21:01;;;;;;;29.67;14.23;;;;;;;;;;10398209;28;21046;-72
2022/03/24 11:26:03;;;;;;;23.77;12.85;;;;;;;;;;10395315;28;20037;-71
2022/03/24 11:31:06;;;;;;;25.42;12.95;;;;;;;;;;10397934;28;20083;-71
2022/03/24 11:36:08;;;;;;;30.20;12.73;;;;;;;;;;10401347;28;20587;-71
2022/03/24 11:41:12;;;;;;;35.15;14.57;;;;;;;;;;10395872;28;20045;-72
2022/03/24 11:46:18;;;;;;;26.65;13.25;;;;;;;;;;10388936;28;20042;-71
2022/03/24 11:51:23;;;;;;;28.48;13.95;;;;;;;;;;10396188;28;20042;-71
2022/03/24 11:56:25;;;;;;;26.40;14.48;;;;;;;;;;10383831;28;20044;-72
2022/03/24 12:01:29;;;;;;;27.42;10.90;;;;;;;;;;10396679;28;20049;-69
2022/03/24 12:06:45;;;;;;;26.35;12.38;;;;;;;;;;10384637;28;20049;-72
2022/03/24 12:11:47;;;;;;;27.77;13.13;;;;;;;;;;10385750;28;20086;-72
2022/03/24 12:16:50;;;;;;;33.63;14.80;;;;;;;;;;10394595;28;20145;-72
2022/03/24 12:21:51;;;;;;;26.60;14.57;;;;;;;;;;10398401;28;20480;-72
2022/03/24 12:26:54;;;;;;;27.08;12.73;;;;;;;;;;10396978;28;20047;-72
2022/03/24 12:32:06;;;;;;;25.50;12.73;;;;;;;;;;10382287;28;20627;-72
2022/03/24 12:37:29;;;;;;;27.75;13.15;;;;;;;;;;10396462;28;20041;-72
2022/03/24 12:42:38;;;;;;;25.50;12.32;;;;;;;;;;10397936;28;20049;-72
2022/03/24 12:47:39;;;;;;;28.48;12.75;;;;;;;;;;10386433;28;20052;-72
2022/03/24 12:52:50;;;;;;;32.22;13.18;;;;;;;;;;10377400;28;20544;-72
2022/03/24 12:57:54;;;;;;;32.05;12.13;;;;;;;;;;10380971;28;20048;-69
2022/03/24 13:02:57;;;;;;;32.65;12.45;;;;;;;;;;10386308;28;20054;-72
2022/03/24 13:08:00;;;;;;;25.23;12.38;;;;;;;;;;10393224;28;20048;-72
2022/03/24 13:13:04;;;;;;;23.17;10.77;;;;;;;;;;10386840;28;20060;-72
2022/03/24 13:18:09;;;;;;;22.58;10.50;;;;;;;;;;10396626;28;20136;-72
2022/03/24 13:23:12;;;;;;;27.50;10.93;;;;;;;;;;10395448;28;20539;-72
2022/03/24 13:28:15;;;;;;;25.80;10.60;;;;;;;;;;10384269;28;20053;-72
2022/03/24 13:33:17;;;;;;;24.13;9.82;;;;;;;;;;10387558;28;20064;-70
2022/03/24 13:38:21;;;;;;;18.98;9.93;;;;;;;;;;10387570;28;20084;-72
2022/03/24 13:43:23;;;;;;;23.98;10.20;;;;;;;;;;10383849;28;20088;-69
2022/03/24 13:48:24;;;;;;;26.80;11.02;;;;;;;;;;10388403;28;20056;-69
2022/03/24 13:53:27;;;;;;;22.02;10.57;;;;;;;;;;10382546;28;20049;-68
2022/03/24 13:58:29;;;;;;;30.70;10.50;;;;;;;;;;10381675;28;20057;-69
2022/03/24 14:03:36;;;;;;;24.77;10.48;;;;;;;;;;10391574;28;20117;-68
2022/03/24 14:08:46;;;;;;;19.85;9.88;;;;;;;;;;10383536;28;20045;-70
2022/03/24 14:13:51;;;;;;;25.38;10.23;;;;;;;;;;10382277;28;20053;-69
2022/03/24 14:19:02;;;;;;;23.80;10.27;;;;;;;;;;10384569;28;20045;-68
2022/03/24 14:24:04;;;;;;;28.02;10.57;;;;;;;;;;10385332;28;20053;-69
2022/03/24 14:29:15;;;;;;;20.02;10.80;;;;;;;;;;10388891;28;20051;-73
2022/03/24 14:34:16;;;;;;;19.00;10.00;;;;;;;;;;10387033;28;20733;-70
2022/03/24 14:39:19;;;;;;;21.80;10.35;;;;;;;;;;10375543;28;20157;-69
2022/03/24 14:44:21;;;;;;;25.25;11.35;;;;;;;;;;10385204;28;20124;-70
2022/03/24 14:49:22;;;;;;;18.70;10.10;;;;;;;;;;10394555;28;20573;-72
2022/03/24 14:54:23;;;;;;;21.92;10.48;;;;;;;;;;10381973;28;20437;-69
2022/03/24 14:59:25;;;;;;;22.60;10.02;;;;;;;;;;10379564;28;20044;-70
2022/03/24 15:04:26;;;;;;;20.05;10.18;;;;;;;;;;10388960;28;20044;-69
2022/03/24 15:09:27;;;;;;;26.67;10.63;;;;;;;;;;10389182;28;20434;-69
2022/03/24 15:19:49;;;;;;;25.58;9.70;;;;;;;;;;10369005;28;20421;-70
2022/03/24 15:24:51;;;;;;;31.23;11.80;;;;;;;;;;10384957;28;20041;-70
2022/03/24 15:29:53;;;;;;;25.80;11.20;;;;;;;;;;10390442;28;20052;-68
2022/03/24 15:34:54;;;;;;;23.80;10.75;;;;;;;;;;10367888;28;20050;-68
2022/03/24 15:39:55;;;;;;;27.10;11.63;;;;;;;;;;10370129;28;20496;-69
2022/03/24 15:44:57;;;;;;;26.70;11.30;;;;;;;;;;10382504;28;20038;-71
2022/03/24 15:49:59;;;;;;;23.13;11.90;;;;;;;;;;10378098;28;20055;-70
2022/03/24 15:55:00;;;;;;;26.65;11.63;;;;;;;;;;10382679;28;20056;-70
2022/03/24 16:00:03;;;;;;;22.75;11.88;;;;;;;;;;10380232;28;20047;-70
2022/03/24 16:05:07;;;;;;;21.50;11.45;;;;;;;;;;10396558;28;20049;-69
2022/03/24 16:10:13;;;;;;;29.42;11.90;;;;;;;;;;10380342;28;20051;-68
2022/03/24 16:15:15;;;;;;;22.67;10.27;;;;;;;;;;10380741;28;20045;-69
2022/03/24 16:20:18;;;;;;;24.42;11.27;;;;;;;;;;10368624;28;20038;-69
2022/03/24 16:25:19;;;;;;;22.80;11.23;;;;;;;;;;10373459;28;20046;-66
2022/03/24 16:30:22;;;;;;;24.52;11.27;;;;;;;;;;10370496;28;20418;-68
2022/03/24 16:35:23;;;;;;;30.85;11.73;;;;;;;;;;10373721;28;20137;-67
2022/03/24 16:40:25;;;;;;;30.60;11.68;;;;;;;;;;10370169;28;20054;-67
2022/03/24 16:45:26;;;;;;;27.90;12.32;;;;;;;;;;10374305;28;20038;-68
2022/03/24 16:50:28;;;;;;;27.90;11.65;;;;;;;;;;10383864;28;20051;-68
2022/03/24 16:55:34;;;;;;;26.30;12.00;;;;;;;;;;10384435;28;20124;-68
2022/03/24 17:00:38;;;;;;;34.78;12.35;;;;;;;;;;10385888;28;20049;-67
2022/03/24 17:05:40;;;;;;;23.05;11.90;;;;;;;;;;10394800;28;20104;-68
2022/03/24 17:10:42;;;;;;;32.28;11.23;;;;;;;;;;10367074;28;20528;-69
2022/03/24 17:15:43;;;;;;;24.70;10.43;;;;;;;;;;10381789;28;20738;-69
2022/03/24 17:20:47;;;;;;;23.70;10.50;;;;;;;;;;10377394;28;20064;-69
2022/03/24 17:25:48;;;;;;;24.90;11.13;;;;;;;;;;10371227;28;20485;-70
2022/03/24 17:30:50;;;;;;;25.95;11.65;;;;;;;;;;10385778;28;20569;-70
2022/03/24 17:35:52;;;;;;;27.25;10.50;;;;;;;;;;10377750;28;20046;-70
2022/03/24 17:40:53;;;;;;;26.25;11.75;;;;;;;;;;10380699;28;20152;-70
2022/03/24 17:45:54;;;;;;;26.27;12.02;;;;;;;;;;10356176;28;20042;-70
2022/03/24 17:50:56;;;;;;;28.70;13.60;;;;;;;;;;10360207;28;20045;-71
2022/03/24 17:55:57;;;;;;;26.08;11.25;;;;;;;;;;10358431;28;20049;-70
2022/03/24 18:00:59;;;;;;;29.58;10.77;;;;;;;;;;10361033;28;20046;-69
2022/03/24 18:12:48;;;;;;;27.98;12.35;;;;;;;;;;10343726;28;20046;-70
2022/03/24 18:17:50;;;;;;;24.63;11.23;;;;;;;;;;10356589;28;20050;-70
2022/03/24 18:22:52;;;;;;;30.15;13.35;;;;;;;;;;10370929;28;20037;-70
2022/03/24 18:27:55;;;;;;;35.03;14.75;;;;;;;;;;10369436;28;20690;-71
2022/03/24 18:32:57;;;;;;;41.88;19.95;;;;;;;;;;10382858;28;20057;-71
2022/03/24 18:37:59;;;;;;;41.50;20.23;;;;;;;;;;10398821;28;20132;-70
2022/03/24 18:43:03;;;;;;;45.50;21.88;;;;;;;;;;10397901;28;20053;-71
2022/03/24 18:48:05;;;;;;;44.13;20.67;;;;;;;;;;10403038;28;20061;-71
2022/03/24 18:53:08;;;;;;;45.85;22.00;;;;;;;;;;10396930;28;20085;-70
2022/03/24 18:58:29;;;;;;;48.00;20.98;;;;;;;;;;10390252;28;20421;-70
2022/03/24 19:03:30;;;;;;;42.65;21.92;;;;;;;;;;10394226;28;20042;-70
2022/03/24 19:08:32;;;;;;;50.58;21.65;;;;;;;;;;10390269;28;20053;-72
2022/03/24 19:13:34;;;;;;;42.30;19.75;;;;;;;;;;10393115;28;20485;-70
2022/03/24 19:18:35;;;;;;;47.22;22.35;;;;;;;;;;10393571;28;20417;-70
2022/03/24 19:23:36;;;;;;;48.10;23.83;;;;;;;;;;10394459;28;20132;-70
2022/03/24 19:28:38;;;;;;;47.28;23.38;;;;;;;;;;10391537;28;20619;-71
2022/03/24 19:33:39;;;;;;;50.00;21.63;;;;;;;;;;10390308;28;20056;-69
2022/03/24 19:38:41;;;;;;;47.97;21.67;;;;;;;;;;10386183;28;20132;-70
2022/03/24 19:43:43;;;;;;;54.08;23.77;;;;;;;;;;10395779;28;20045;-70
2022/03/24 19:48:45;;;;;;;51.95;23.38;;;;;;;;;;10405234;28;20049;-70
2022/03/24 19:53:46;;;;;;;52.88;23.65;;;;;;;;;;10404362;28;20137;-70
2022/03/24 19:58:48;;;;;;;55.55;24.48;;;;;;;;;;10405397;28;20092;-70
2022/03/24 20:03:51;;;;;;;55.83;25.83;;;;;;;;;;10408169;28;20041;-69
2022/03/24 20:08:52;;;;;;;60.05;25.42;;;;;;;;;;10406276;28;20041;-69
2022/03/24 20:13:54;;;;;;;55.22;23.77;;;;;;;;;;10405931;28;20084;-69
2022/03/24 20:18:55;;;;;;;48.83;23.50;;;;;;;;;;10396184;28;20051;-68
2022/03/24 20:24:00;;;;;;;52.97;23.90;;;;;;;;;;10401173;28;20053;-69
2022/03/24 20:29:11;;;;;;;51.22;22.63;;;;;;;;;;10380251;28;20045;-70
2022/03/24 20:34:18;;;;;;;59.35;26.42;;;;;;;;;;10400817;28;20037;-70
2022/03/24 20:39:20;;;;;;;54.22;26.20;;;;;;;;;;10404580;28;20061;-70
2022/03/24 20:44:25;;;;;;;60.95;25.98;;;;;;;;;;10395759;28;20134;-68
2022/03/24 20:49:27;;;;;;;53.67;25.88;;;;;;;;;;10381265;28;20481;-70
2022/03/24 20:54:29;;;;;;;59.63;27.63;;;;;;;;;;10393761;28;20807;-69
2022/03/24 20:59:30;;;;;;;66.82;27.58;;;;;;;;;;10404207;28;20496;-69
2022/03/24 21:04:32;;;;;;;59.17;27.85;;;;;;;;;;10396913;28;20046;-69
2022/03/24 21:09:34;;;;;;;62.83;28.75;;;;;;;;;;10381413;28;20116;-69
2022/03/24 21:14:35;;;;;;;55.53;26.55;;;;;;;;;;10391124;28;20037;-71
2022/03/24 21:19:37;;;;;;;67.35;30.13;;;;;;;;;;10385537;28;20505;-70
2022/03/24 21:24:38;;;;;;;67.60;30.45;;;;;;;;;;10398480;28;20061;-70
2022/03/24 21:29:41;;;;;;;65.95;30.83;;;;;;;;;;10388826;28;20075;-70
2022/03/24 21:34:42;;;;;;;66.65;31.40;;;;;;;;;;10394733;28;20046;-70
2022/03/24 21:39:44;;;;;;;70.38;31.38;;;;;;;;;;10392276;28;20072;-70
2022/03/24 21:44:45;;;;;;;76.53;34.67;;;;;;;;;;10397923;28;20045;-69
2022/03/24 21:49:47;;;;;;;68.63;32.35;;;;;;;;;;10384500;28;20153;-69
2022/03/24 21:54:48;;;;;;;77.93;33.42;;;;;;;;;;10390155;28;20041;-69
2022/03/24 21:59:49;;;;;;;75.60;32.13;;;;;;;;;;10391452;28;20132;-69
2022/03/24 22:04:51;;;;;;;76.90;33.65;;;;;;;;;;10405996;28;20052;-69
2022/03/24 22:09:52;;;;;;;77.57;35.05;;;;;;;;;;10402309;28;20045;-70
2022/03/24 22:14:58;;;;;;;72.57;32.70;;;;;;;;;;10380547;28;20061;-69
2022/03/24 22:20:03;;;;;;;75.03;34.08;;;;;;;;;;10380336;28;20095;-70
2022/03/24 22:25:05;;;;;;;70.50;32.72;;;;;;;;;;10391133;28;20045;-69
2022/03/24 22:30:10;;;;;;;76.75;32.65;;;;;;;;;;10402439;28;20077;-68
2022/03/24 22:35:11;;;;;;;73.50;31.20;;;;;;;;;;10402549;28;20045;-69
2022/03/24 22:40:13;;;;;;;75.53;32.47;;;;;;;;;;10373142;28;20086;-69
2022/03/24 22:45:15;;;;;;;73.38;31.17;;;;;;;;;;10390389;28;20075;-69
2022/03/24 22:50:16;;;;;;;66.95;30.60;;;;;;;;;;10379052;28;20046;-69
2022/03/24 22:55:18;;;;;;;73.50;31.10;;;;;;;;;;10397106;28;20076;-69
2022/03/24 23:00:24;;;;;;;72.70;30.73;;;;;;;;;;10391576;28;20080;-69
2022/03/24 23:05:26;;;;;;;70.63;31.95;;;;;;;;;;10408215;28;20041;-68
2022/03/24 23:10:28;;;;;;;77.10;33.13;;;;;;;;;;10377631;28;20045;-68
2022/03/24 23:15:29;;;;;;;73.60;33.55;;;;;;;;;;10387222;28;20690;-68
2022/03/24 23:20:31;;;;;;;73.60;33.55;;;;;;;;;;10395358;28;20037;-70
2022/03/24 23:25:32;;;;;;;82.78;33.97;;;;;;;;;;10394781;28;20041;-69
2022/03/24 23:30:37;;;;;;;85.65;35.28;;;;;;;;;;10396323;28;20120;-67
2022/03/24 23:35:39;;;;;;;81.03;35.15;;;;;;;;;;10399380;28;20132;-68
2022/03/24 23:40:40;;;;;;;89.57;37.45;;;;;;;;;;10396809;28;20056;-68
2022/03/24 23:45:42;;;;;;;87.45;38.00;;;;;;;;;;10398104;28;20042;-69
2022/03/24 23:50:43;;;;;;;88.68;36.58;;;;;;;;;;10382102;28;20050;-68
2022/03/24 23:55:45;;;;;;;85.50;34.45;;;;;;;;;;10389948;28;20087;-67
